createdAt,value
2023-03-29T00:01:00.201Z,2.72
2023-03-29T00:03:27.824Z,3.60
2023-03-29T00:06:05.670Z,3.47
2023-03-29T00:08:38.508Z,3.25
2023-03-29T00:11:05.356Z,3.22
2023-03-29T00:13:31.991Z,3.17
2023-03-29T00:15:58.607Z,4.28
2023-03-29T00:18:26.547Z,4.05
2023-03-29T00:20:58.076Z,4.20
2023-03-29T00:23:25.386Z,4.00
2023-03-29T00:25:55.841Z,3.78
2023-03-29T00:28:22.926Z,3.80
2023-03-29T00:30:51.004Z,4.10
2023-03-29T00:33:20.662Z,4.50
2023-03-29T00:35:50.583Z,4.43
2023-03-29T00:38:17.254Z,4.25
2023-03-29T00:40:47.198Z,4.40
2023-03-29T00:43:15.372Z,3.70
2023-03-29T00:45:42.513Z,4.00
2023-03-29T00:48:12.343Z,4.07
2023-03-29T00:50:39.452Z,4.45
2023-03-29T00:53:27.800Z,4.10
2023-03-29T00:56:07.783Z,3.75
2023-03-29T00:58:43.538Z,4.32
2023-03-29T01:01:26.107Z,4.53
2023-03-29T01:03:59.682Z,3.92
2023-03-29T01:06:29.590Z,3.75
2023-03-29T01:09:03.124Z,3.60
2023-03-29T01:11:38.878Z,4.18
2023-03-29T01:14:11.764Z,4.40
2023-03-29T01:16:38.703Z,3.85
2023-03-29T01:19:08.570Z,4.18
2023-03-29T01:22:14.810Z,4.10
2023-03-29T01:25:11.346Z,4.03
2023-03-29T01:27:37.827Z,3.70
2023-03-29T01:30:16.214Z,3.55
2023-03-29T01:32:50.557Z,3.70
2023-03-29T01:35:25.357Z,3.70
2023-03-29T01:38:20.657Z,3.40
2023-03-29T01:40:47.485Z,4.10
2023-03-29T01:43:26.108Z,4.30
2023-03-29T01:46:04.937Z,4.20
2023-03-29T01:48:40.586Z,4.00
2023-03-29T01:51:16.245Z,4.00
2023-03-29T01:53:47.612Z,3.83
2023-03-29T01:56:19.481Z,4.10
2023-03-29T01:58:50.198Z,3.97
2023-03-29T02:01:23.011Z,3.65
2023-03-29T02:03:54.697Z,4.70
2023-03-29T02:06:25.679Z,4.10
2023-03-29T02:08:53.298Z,4.00
2023-03-29T02:11:20.763Z,4.10
2023-03-29T02:13:47.334Z,4.13
2023-03-29T02:16:15.475Z,3.97
2023-03-29T02:18:46.543Z,5.03
2023-03-29T02:21:21.302Z,4.88
2023-03-29T02:23:49.753Z,4.55
2023-03-29T02:26:17.663Z,4.03
2023-03-29T02:28:44.455Z,4.10
2023-03-29T02:31:26.270Z,4.22
2023-03-29T02:34:11.400Z,3.97
2023-03-29T02:36:46.757Z,5.22
2023-03-29T02:39:15.874Z,4.60
2023-03-29T02:41:47.082Z,5.20
2023-03-29T02:44:18.813Z,4.97
2023-03-29T02:46:48.902Z,4.60
2023-03-29T02:49:15.868Z,5.38
2023-03-29T02:51:43.021Z,4.80
2023-03-29T02:54:17.855Z,4.20
2023-03-29T02:56:49.983Z,4.30
2023-03-29T02:59:19.556Z,4.47
2023-03-29T03:01:46.505Z,4.95
2023-03-29T03:04:13.363Z,5.03
2023-03-29T03:06:40.621Z,4.68
2023-03-29T03:09:07.696Z,4.47
2023-03-29T03:11:34.341Z,4.78
2023-03-29T03:14:01.995Z,4.13
2023-03-29T03:16:28.905Z,4.78
2023-03-29T03:18:55.745Z,4.72
2023-03-29T03:21:23.251Z,3.90
2023-03-29T03:23:50.128Z,5.50
2023-03-29T03:26:18.120Z,4.93
2023-03-29T03:28:45.812Z,4.15
2023-03-29T03:31:16.148Z,4.97
2023-03-29T03:33:42.889Z,4.25
2023-03-29T03:36:11.285Z,4.65
2023-03-29T03:38:38.942Z,4.45
2023-03-29T03:41:09.207Z,4.53
2023-03-29T03:43:36.084Z,4.85
2023-03-29T03:46:02.719Z,4.82
2023-03-29T03:48:29.456Z,4.63
2023-03-29T03:50:58.345Z,5.13
2023-03-29T03:53:27.256Z,4.60
2023-03-29T03:55:57.910Z,4.60
2023-03-29T03:58:24.703Z,4.88
2023-03-29T04:00:51.737Z,4.70
2023-03-29T04:03:18.851Z,4.07
2023-03-29T04:05:46.782Z,5.18
2023-03-29T04:08:14.931Z,4.60
2023-03-29T04:10:42.890Z,4.22
2023-03-29T04:13:09.633Z,5.38
2023-03-29T04:15:39.944Z,4.60
2023-03-29T04:18:07.793Z,4.57
2023-03-29T04:20:34.736Z,5.07
2023-03-29T04:23:02.034Z,4.47
2023-03-29T04:25:28.932Z,4.10
2023-03-29T04:27:56.091Z,4.55
2023-03-29T04:30:23.027Z,4.50
2023-03-29T04:32:49.855Z,4.45
2023-03-29T04:35:16.597Z,4.50
2023-03-29T04:37:43.220Z,4.85
2023-03-29T04:40:14.266Z,4.70
2023-03-29T04:42:46.092Z,4.50
2023-03-29T04:45:14.364Z,4.10
2023-03-29T04:47:42.117Z,4.68
2023-03-29T04:50:09.261Z,4.85
2023-03-29T04:52:36.136Z,4.75
2023-03-29T04:55:05.268Z,4.45
2023-03-29T04:57:31.913Z,4.57
2023-03-29T04:59:58.516Z,4.93
2023-03-29T05:02:25.192Z,4.97
2023-03-29T05:04:52.205Z,4.43
2023-03-29T05:07:19.568Z,4.93
2023-03-29T05:09:46.265Z,4.78
2023-03-29T05:12:13.183Z,5.60
2023-03-29T05:14:39.786Z,5.45
2023-03-29T05:17:06.581Z,5.00
2023-03-29T05:19:33.759Z,4.38
2023-03-29T05:22:00.831Z,5.05
2023-03-29T05:24:27.691Z,4.47
2023-03-29T05:26:54.444Z,5.28
2023-03-29T05:29:21.751Z,4.40
2023-03-29T05:31:48.363Z,4.53
2023-03-29T05:34:15.066Z,5.10
2023-03-29T05:36:42.895Z,5.00
2023-03-29T05:39:10.965Z,4.55
2023-03-29T05:41:37.947Z,4.63
2023-03-29T05:44:06.324Z,4.13
2023-03-29T05:46:32.967Z,4.57
2023-03-29T05:48:59.577Z,4.60
2023-03-29T05:51:26.186Z,4.60
2023-03-29T05:53:53.291Z,4.43
2023-03-29T05:56:20.060Z,4.70
2023-03-29T05:58:46.759Z,3.97
2023-03-29T06:01:14.507Z,4.32
2023-03-29T06:03:41.436Z,4.70
2023-03-29T06:06:09.615Z,4.93
2023-03-29T06:08:36.459Z,4.20
2023-03-29T06:11:05.837Z,4.53
2023-03-29T06:13:34.128Z,4.25
2023-03-29T06:16:01.293Z,3.97
2023-03-29T06:18:28.188Z,4.70
2023-03-29T06:20:55.015Z,3.80
2023-03-29T06:23:22.486Z,3.92
2023-03-29T06:25:51.559Z,4.80
2023-03-29T06:28:20.331Z,3.63
2023-03-29T06:30:47.689Z,4.07
2023-03-29T06:33:14.466Z,3.20
2023-03-29T06:35:45.343Z,3.72
2023-03-29T06:38:12.029Z,3.65
2023-03-29T06:40:38.811Z,3.60
2023-03-29T06:43:06.667Z,3.58
2023-03-29T06:45:36.357Z,4.00
2023-03-29T06:48:03.958Z,4.18
2023-03-29T06:50:30.988Z,3.50
2023-03-29T06:52:57.627Z,4.10
2023-03-29T06:55:24.951Z,3.45
2023-03-29T06:57:51.607Z,3.45
2023-03-29T07:00:28.295Z,3.47
2023-03-29T07:05:24.047Z,3.20
2023-03-29T07:07:57.493Z,3.35
2023-03-29T07:10:32.237Z,3.17
2023-03-29T07:13:00.899Z,3.42
2023-03-29T07:15:29.435Z,4.07
2023-03-29T07:17:58.015Z,3.28
2023-03-29T07:20:27.008Z,3.20
2023-03-29T07:22:53.853Z,3.30
2023-03-29T07:25:22.558Z,3.58
2023-03-29T07:27:49.757Z,3.63
2023-03-29T07:30:22.907Z,2.75
2023-03-29T07:32:51.366Z,3.33
2023-03-29T07:35:18.642Z,3.35
2023-03-29T07:37:46.378Z,3.45
2023-03-29T07:40:18.644Z,3.92
2023-03-29T07:42:47.174Z,3.42
2023-03-29T07:45:16.468Z,3.13
2023-03-29T07:47:50.533Z,3.63
2023-03-29T07:50:17.585Z,3.15
2023-03-29T07:52:44.786Z,3.03
2023-03-29T07:55:13.242Z,3.00
2023-03-29T07:57:40.439Z,3.50
2023-03-29T08:00:26.261Z,3.00
2023-03-29T08:02:52.907Z,3.13
2023-03-29T08:05:37.775Z,3.08
2023-03-29T08:08:07.630Z,2.97
2023-03-29T08:10:37.341Z,2.72
2023-03-29T08:13:07.375Z,3.53
2023-03-29T08:15:41.514Z,3.35
2023-03-29T08:18:08.672Z,3.10
2023-03-29T08:20:35.350Z,2.90
2023-03-29T08:23:02.106Z,2.88
2023-03-29T08:25:28.697Z,3.10
2023-03-29T08:27:55.311Z,3.10
2023-03-29T08:30:22.081Z,3.28
2023-03-29T08:32:52.197Z,3.40
2023-03-29T08:35:20.484Z,3.20
2023-03-29T08:37:47.274Z,2.70
2023-03-29T08:40:21.670Z,3.50
2023-03-29T08:43:01.827Z,3.10
2023-03-29T08:46:03.874Z,3.25
2023-03-29T08:48:37.734Z,3.33
2023-03-29T08:51:20.040Z,3.25
2023-03-29T08:53:52.575Z,3.20
2023-03-29T08:56:25.153Z,3.42
2023-03-29T08:58:54.485Z,3.67
2023-03-29T09:01:22.736Z,3.25
2023-03-29T09:04:28.409Z,3.13
2023-03-29T09:06:55.692Z,3.25
2023-03-29T09:09:25.541Z,3.42
2023-03-29T09:12:13.578Z,2.97
2023-03-29T09:15:00.330Z,3.50
2023-03-29T09:17:51.629Z,3.65
2023-03-29T09:20:30.484Z,3.40
2023-03-29T09:23:12.436Z,3.47
2023-03-29T09:26:00.110Z,3.35
2023-03-29T09:28:55.040Z,3.35
2023-03-29T09:31:26.208Z,3.75
2023-03-29T09:33:58.740Z,3.60
2023-03-29T09:36:37.076Z,3.53
2023-03-29T09:39:05.073Z,3.17
2023-03-29T09:42:05.244Z,3.10
2023-03-29T09:44:37.377Z,3.58
2023-03-29T09:47:13.409Z,3.03
2023-03-29T09:49:47.128Z,3.58
2023-03-29T09:52:17.145Z,3.60
2023-03-29T09:54:44.454Z,5.13
2023-03-29T09:57:17.046Z,3.88
2023-03-29T09:59:46.151Z,3.20
2023-03-29T10:02:13.952Z,3.47
2023-03-29T10:04:42.959Z,3.42
2023-03-29T10:07:18.329Z,3.22
2023-03-29T10:09:46.388Z,3.67
2023-03-29T10:12:14.084Z,3.72
2023-03-29T10:14:48.632Z,4.00
2023-03-29T10:17:25.588Z,3.80
2023-03-29T10:19:57.201Z,3.92
2023-03-29T10:22:34.837Z,4.07
2023-03-29T10:25:02.153Z,4.07
2023-03-29T10:27:32.079Z,4.30
2023-03-29T10:30:01.118Z,4.65
2023-03-29T10:32:34.934Z,4.20
2023-03-29T10:35:16.863Z,3.88
2023-03-29T10:37:47.582Z,3.88
2023-03-29T10:40:25.817Z,4.10
2023-03-29T10:42:54.091Z,4.07
2023-03-29T10:45:25.829Z,4.38
2023-03-29T10:47:56.047Z,3.85
2023-03-29T10:50:22.955Z,4.00
2023-03-29T10:52:50.542Z,3.78
2023-03-29T10:55:17.378Z,4.25
2023-03-29T10:57:59.490Z,3.83
2023-03-29T11:00:50.051Z,3.95
2023-03-29T11:03:40.208Z,3.80
2023-03-29T11:06:07.823Z,4.82
2023-03-29T11:08:50.517Z,3.97
2023-03-29T11:11:35.544Z,3.97
2023-03-29T11:14:14.197Z,3.83
2023-03-29T11:16:51.152Z,4.65
2023-03-29T11:19:29.557Z,4.10
2023-03-29T11:22:29.032Z,4.28
2023-03-29T11:25:21.105Z,4.07
2023-03-29T11:28:17.271Z,3.90
2023-03-29T11:31:13.403Z,4.63
2023-03-29T11:33:48.893Z,4.50
2023-03-29T11:36:42.260Z,4.53
2023-03-29T11:39:30.607Z,4.20
2023-03-29T11:42:17.648Z,4.50
2023-03-29T11:44:47.327Z,4.10
2023-03-29T11:47:26.776Z,4.45
2023-03-29T11:50:22.870Z,4.82
2023-03-29T11:52:54.491Z,4.38
2023-03-29T11:55:28.905Z,4.60
2023-03-29T11:57:56.762Z,4.18
2023-03-29T12:00:31.069Z,4.60
2023-03-29T12:03:19.705Z,3.72
2023-03-29T12:05:54.958Z,3.97
2023-03-29T12:08:40.418Z,4.20
2023-03-29T12:11:22.985Z,3.95
2023-03-29T12:14:02.454Z,3.42
2023-03-29T12:16:52.139Z,4.10
2023-03-29T12:19:25.841Z,4.03
2023-03-29T12:21:56.117Z,3.88
2023-03-29T12:24:25.968Z,3.90
2023-03-29T12:27:20.008Z,3.72
2023-03-29T12:30:13.198Z,3.78
2023-03-29T12:33:01.378Z,3.55
2023-03-29T12:35:55.844Z,4.00
2023-03-29T12:38:25.485Z,3.55
2023-03-29T12:40:57.723Z,4.03
2023-03-29T12:43:27.542Z,4.70
2023-03-29T12:46:21.645Z,4.22
2023-03-29T12:48:54.379Z,3.58
2023-03-29T12:51:29.387Z,3.78
2023-03-29T12:54:07.789Z,4.60
2023-03-29T12:56:56.303Z,3.90
2023-03-29T12:59:22.867Z,3.78
2023-03-29T13:02:00.292Z,3.97
2023-03-29T13:04:57.453Z,3.65
2023-03-29T13:07:24.190Z,3.92
2023-03-29T13:09:52.885Z,3.90
2023-03-29T13:12:27.185Z,3.45
2023-03-29T13:14:59.133Z,3.67
2023-03-29T13:17:50.251Z,3.67
2023-03-29T13:20:56.918Z,4.13
2023-03-29T13:23:31.806Z,3.67
2023-03-29T13:26:33.532Z,4.32
2023-03-29T13:29:26.804Z,3.90
2023-03-29T13:32:00.883Z,3.80
2023-03-29T13:34:46.495Z,3.50
2023-03-29T13:37:25.102Z,3.08
2023-03-29T13:39:54.700Z,3.40
2023-03-29T13:42:26.561Z,3.67
2023-03-29T13:44:53.949Z,3.40
2023-03-29T13:47:32.482Z,2.90
2023-03-29T13:50:05.415Z,3.00
2023-03-29T13:52:40.209Z,3.35
2023-03-29T13:55:24.477Z,3.10
2023-03-29T13:58:12.177Z,3.25
2023-03-29T14:00:49.754Z,3.70
2023-03-29T14:03:20.855Z,2.83
2023-03-29T14:05:50.169Z,3.22
2023-03-29T14:08:27.327Z,2.90
2023-03-29T14:10:55.259Z,2.90
2023-03-29T14:13:25.821Z,3.22
2023-03-29T14:15:58.684Z,3.15
2023-03-29T14:18:28.726Z,3.33
2023-03-29T14:20:56.345Z,3.30
2023-03-29T14:23:27.206Z,3.65
2023-03-29T14:25:53.896Z,3.38
2023-03-29T14:28:28.546Z,3.20
2023-03-29T14:30:56.268Z,3.65
2023-03-29T14:33:27.933Z,3.65
2023-03-29T14:36:01.121Z,3.97
2023-03-29T14:38:29.320Z,3.63
2023-03-29T14:40:59.908Z,4.00
2023-03-29T14:43:30.320Z,3.85
2023-03-29T14:45:58.741Z,4.18
2023-03-29T14:48:26.341Z,3.85
2023-03-29T14:50:53.153Z,3.92
2023-03-29T14:53:22.103Z,4.03
2023-03-29T14:55:52.401Z,3.72
2023-03-29T14:58:31.933Z,3.80
2023-03-29T15:01:13.994Z,4.00
2023-03-29T15:03:57.716Z,3.78
2023-03-29T15:06:26.495Z,3.75
2023-03-29T15:09:04.181Z,3.50
2023-03-29T15:11:34.153Z,4.07
2023-03-29T15:14:02.884Z,3.78
2023-03-29T15:16:30.817Z,3.75
2023-03-29T15:18:58.550Z,3.92
2023-03-29T15:21:31.907Z,3.67
2023-03-29T15:24:02.045Z,4.15
2023-03-29T15:26:38.334Z,3.88
2023-03-29T15:29:17.025Z,3.90
2023-03-29T15:31:55.006Z,3.80
2023-03-29T15:34:39.917Z,3.65
2023-03-29T15:37:07.643Z,3.55
2023-03-29T15:39:35.021Z,3.92
2023-03-29T15:42:01.967Z,3.90
2023-03-29T15:44:33.498Z,4.00
2023-03-29T15:47:00.381Z,4.00
2023-03-29T15:49:27.412Z,3.28
2023-03-29T15:51:54.790Z,3.80
2023-03-29T15:54:22.481Z,3.45
2023-03-29T15:56:52.933Z,3.75
2023-03-29T15:59:19.803Z,3.70
2023-03-29T16:01:46.941Z,3.75
2023-03-29T16:04:16.599Z,4.20
2023-03-29T16:06:45.665Z,3.78
2023-03-29T16:09:12.752Z,4.10
2023-03-29T16:11:41.288Z,3.90
2023-03-29T16:14:31.610Z,3.90
2023-03-29T16:17:00.378Z,3.70
2023-03-29T16:19:28.488Z,3.58
2023-03-29T16:21:56.724Z,4.00
2023-03-29T16:24:26.322Z,4.03
2023-03-29T16:26:55.838Z,3.97
2023-03-29T16:29:23.851Z,3.67
2023-03-29T16:31:51.468Z,3.70
2023-03-29T16:34:19.282Z,3.65
2023-03-29T16:36:49.612Z,4.85
2023-03-29T16:39:17.410Z,4.10
2023-03-29T16:41:45.301Z,3.70
2023-03-29T16:44:18.590Z,3.78
2023-03-29T16:46:46.810Z,3.55
2023-03-29T16:49:18.758Z,3.72
2023-03-29T16:51:46.945Z,3.58
2023-03-29T16:54:14.668Z,3.63
2023-03-29T16:56:41.538Z,3.42
2023-03-29T16:59:09.309Z,3.58
2023-03-29T17:01:36.973Z,3.72
2023-03-29T17:04:04.198Z,3.70
2023-03-29T17:06:32.713Z,3.45
2023-03-29T17:08:59.499Z,3.97
2023-03-29T17:11:26.913Z,3.65
2023-03-29T17:13:54.007Z,3.50
2023-03-29T17:16:21.110Z,3.63
2023-03-29T17:18:47.883Z,3.72
2023-03-29T17:21:14.787Z,3.33
2023-03-29T17:23:41.391Z,3.40
2023-03-29T17:26:08.104Z,3.80
2023-03-29T17:28:35.025Z,3.25
2023-03-29T17:31:07.522Z,3.53
2023-03-29T17:33:35.003Z,3.95
2023-03-29T17:36:02.628Z,3.78
2023-03-29T17:38:30.697Z,3.95
2023-03-29T17:40:57.458Z,3.90
2023-03-29T17:43:24.083Z,3.97
2023-03-29T17:45:52.303Z,4.15
2023-03-29T17:48:19.485Z,3.83
2023-03-29T17:50:46.571Z,3.55
2023-03-29T17:53:13.562Z,3.70
2023-03-29T17:55:41.052Z,4.28
2023-03-29T17:58:08.312Z,3.90
2023-03-29T18:00:35.737Z,3.83
2023-03-29T18:03:03.925Z,4.13
2023-03-29T18:05:30.743Z,4.35
2023-03-29T18:07:57.548Z,4.05
2023-03-29T18:10:24.194Z,4.20
2023-03-29T18:12:50.711Z,3.90
2023-03-29T18:15:17.696Z,3.75
2023-03-29T18:17:44.970Z,3.80
2023-03-29T18:20:12.809Z,4.03
2023-03-29T18:22:44.120Z,3.40
2023-03-29T18:25:11.136Z,3.80
2023-03-29T18:27:39.516Z,3.88
2023-03-29T18:30:08.610Z,3.70
2023-03-29T18:32:35.854Z,3.75
2023-03-29T18:35:03.269Z,3.88
2023-03-29T18:37:29.882Z,3.90
2023-03-29T18:39:57.661Z,4.13
2023-03-29T18:42:24.367Z,4.05
2023-03-29T18:44:51.326Z,4.05
2023-03-29T18:47:18.437Z,4.20
2023-03-29T18:49:46.255Z,3.90
2023-03-29T18:52:12.949Z,4.38
2023-03-29T18:54:39.619Z,4.13
2023-03-29T18:57:06.432Z,4.40
2023-03-29T18:59:35.922Z,4.00
2023-03-29T19:02:03.116Z,4.50
2023-03-29T19:04:29.982Z,4.10
2023-03-29T19:06:56.723Z,3.55
2023-03-29T19:09:23.360Z,3.70
2023-03-29T19:11:50.000Z,3.95
2023-03-29T19:14:17.659Z,3.83
2023-03-29T19:16:44.296Z,3.40
2023-03-29T19:19:11.076Z,3.50
2023-03-29T19:21:38.568Z,4.00
2023-03-29T19:24:07.754Z,4.03
2023-03-29T19:26:34.438Z,3.72
2023-03-29T19:29:01.482Z,3.83
2023-03-29T19:31:28.442Z,4.70
2023-03-29T19:33:55.396Z,4.13
2023-03-29T19:36:22.610Z,3.58
2023-03-29T19:38:49.196Z,4.10
2023-03-29T19:41:15.975Z,4.13
2023-03-29T19:43:42.656Z,3.63
2023-03-29T19:46:12.874Z,4.00
2023-03-29T19:48:39.931Z,3.70
2023-03-29T19:51:06.770Z,3.70
2023-03-29T19:53:34.933Z,3.55
2023-03-29T19:56:04.334Z,3.78
2023-03-29T19:58:31.524Z,3.72
2023-03-29T20:00:58.227Z,3.17
2023-03-29T20:03:28.490Z,3.30
2023-03-29T20:05:58.427Z,3.80
2023-03-29T20:08:25.644Z,3.60
2023-03-29T20:11:10.207Z,3.53
2023-03-29T20:13:44.869Z,3.13
2023-03-29T20:16:14.641Z,3.28
2023-03-29T20:18:41.653Z,3.45
2023-03-29T20:21:09.848Z,3.13
2023-03-29T20:23:36.859Z,3.55
2023-03-29T20:26:03.526Z,3.45
2023-03-29T20:28:30.428Z,3.08
2023-03-29T20:30:57.288Z,3.13
2023-03-29T20:33:23.992Z,2.97
2023-03-29T20:35:50.878Z,2.75
2023-03-29T20:38:17.523Z,3.08
2023-03-29T20:40:44.950Z,3.17
2023-03-29T20:43:13.427Z,3.08
2023-03-29T20:45:52.769Z,3.10
2023-03-29T20:48:23.199Z,3.00
2023-03-29T20:50:50.722Z,3.20
2023-03-29T20:53:19.372Z,3.13
2023-03-29T20:55:46.022Z,3.22
2023-03-29T20:58:12.751Z,2.92
2023-03-29T21:00:40.368Z,3.08
2023-03-29T21:03:08.328Z,3.20
2023-03-29T21:05:35.782Z,2.97
2023-03-29T21:08:04.508Z,2.50
2023-03-29T21:10:31.213Z,2.67
2023-03-29T21:13:02.642Z,3.30
2023-03-29T21:15:30.944Z,2.95
2023-03-29T21:17:58.442Z,3.20
2023-03-29T21:20:25.637Z,2.83
2023-03-29T21:22:52.248Z,2.65
2023-03-29T21:25:19.227Z,2.70
2023-03-29T21:27:46.030Z,2.50
2023-03-29T21:30:13.022Z,2.67
2023-03-29T21:32:40.121Z,2.97
2023-03-29T21:35:07.466Z,2.30
2023-03-29T21:37:34.018Z,2.90
2023-03-29T21:40:00.690Z,3.05
2023-03-29T21:42:27.227Z,2.40
2023-03-29T21:44:53.806Z,2.70
2023-03-29T21:47:20.588Z,2.70
2023-03-29T21:49:47.212Z,3.00
2023-03-29T21:52:13.784Z,2.70
2023-03-29T21:54:40.372Z,2.70
2023-03-29T21:57:06.956Z,2.53
2023-03-29T21:59:33.603Z,2.40
2023-03-29T22:02:00.557Z,2.58
2023-03-29T22:04:36.530Z,2.55
2023-03-29T22:07:04.817Z,2.78
2023-03-29T22:09:34.783Z,2.47
2023-03-29T22:12:01.782Z,2.75
2023-03-29T22:14:31.436Z,2.30
2023-03-29T22:16:58.080Z,2.22
2023-03-29T22:19:24.805Z,2.92
2023-03-29T22:21:51.530Z,2.33
2023-03-29T22:24:18.748Z,2.70
2023-03-29T22:26:45.446Z,2.40
2023-03-29T22:29:12.066Z,2.78
2023-03-29T22:31:39.482Z,2.50
2023-03-29T22:34:06.651Z,2.55
2023-03-29T22:36:33.714Z,2.67
2023-03-29T22:39:00.741Z,2.53
2023-03-29T22:41:28.321Z,2.42
2023-03-29T22:43:57.754Z,2.15
2023-03-29T22:46:26.361Z,2.10
2023-03-29T22:48:53.543Z,2.60
2023-03-29T22:51:20.793Z,2.60
2023-03-29T22:53:47.656Z,2.45
2023-03-29T22:56:15.670Z,2.90
2023-03-29T22:58:43.276Z,3.03
2023-03-29T23:01:10.834Z,2.72
2023-03-29T23:03:37.732Z,2.67
2023-03-29T23:06:04.754Z,2.90
2023-03-29T23:08:33.851Z,3.00
2023-03-29T23:11:01.437Z,2.80
2023-03-29T23:13:31.135Z,3.20
2023-03-29T23:16:00.280Z,2.80
2023-03-29T23:18:29.529Z,2.65
2023-03-29T23:20:58.018Z,2.50
2023-03-29T23:23:26.921Z,2.40
2023-03-29T23:25:55.462Z,2.80
2023-03-29T23:28:25.116Z,2.70
2023-03-29T23:31:06.217Z,3.78
2023-03-29T23:33:35.616Z,2.83
2023-03-29T23:36:04.446Z,2.60
2023-03-29T23:38:35.213Z,2.20
2023-03-29T23:41:04.243Z,2.55
2023-03-29T23:43:33.710Z,2.63
2023-03-29T23:46:02.861Z,2.75
2023-03-29T23:48:30.223Z,2.65
2023-03-29T23:50:59.917Z,2.58
2023-03-29T23:53:28.947Z,2.45
2023-03-29T23:56:05.801Z,2.45
